Česky Dansk Deutsch English Español Suomi Français Magyar Italiano Nederlands norsk Polski Português svenska Türkçe

 

Het Weer

Ostrava / Mosnov (Tjechië)

14:00, 23 augustus 2016 (GMT)

NWNNE
WE
SWSSE
Home            
Ostrava / Mosnov Holesov Dolny Hricov Kunovice Katowice Prievidza Brno / Turany Piestany Piestany Krakow Sliac Sliac Nitra Poprad / Tatry Bratislava Ivanka Wroclaw Ii Lucenec Wien / Schwechat-Flughafen Tulln Krems-Langenlois Niederosterreich / Lugplatz Voslau Niederosterreich / Wiener Neustadt-Ost Flugplatz Budapest Met Center

Om een weerknop op uw website of weblog te plaatsen, copieer onderstaande code en plak die in uw pagina. In het eerste vakje staat HTML-code, in het tweede vakje UBB-code.


Add to Google

Details

Wind speed:3 bf, 7 kn, 3.6 m/s, 8.1 miles/h, 13.0 km/h
Wind direction:NE, 050°
Visibility:Greater than 10000 m, 10 km, 32800 ft, 6.2 miles
Clouds:CAVOC
Temperature:23°C, 73°F
Gefühlte Temperatur:25°C, 77°F
Dew-point:14°C, 57°F
Atmospheric pressure:1026 hPa, 769.6 mmHg, 30.30 inHg, 1.013 atm
Relative humidity:56.9 %
METAR:LKMT 231400Z 05007KT CAVOK 23/14 Q1026 NOSIG

Snelkoppelingen

Actuele weersinformatie van de hele wereld. Voeg locaties toe met het plus (+) symbool. Deze snelkoppelingen kunnen worden toegevoegd aan Google.

Lid van de Technetium groep

website free tracking
StatCounter NetStat W3C Validator

17-08-2022 05:46:33
astro.technetium.be money.technetium.be phote.technetium.be tafeltennistafel.technetium.be www.ligfiets.net